Time;durP1;ratioP1;P1;durP2;ratioP2;P2;SDS_P1;SDS_P2;PMS_P1;PMS_P2;Temp;Humidity;BMP_temperature;BMP_pressure;BME280_temperature;BME280_humidity;BME280_pressure;Samples;Min_cycle;Max_cycle;Signal;HPM_P1;HPM_P2
2022/03/22 00:01:30;;;;;;;17.38;11.85;;;10.60;56.60;;;;;;5019518;28;20046;-47
2022/03/22 00:04:02;;;;;;;19.35;12.05;;;10.60;56.60;;;;;;5040371;28;20040;-45
2022/03/22 00:06:30;;;;;;;19.35;12.95;;;10.60;56.60;;;;;;5043784;28;20041;-45
2022/03/22 00:08:56;;;;;;;15.25;11.23;;;10.60;56.70;;;;;;5028274;28;20049;-46
2022/03/22 00:11:27;;;;;;;13.82;10.82;;;10.60;56.70;;;;;;5030645;28;20449;-45
2022/03/22 00:13:54;;;;;;;16.45;12.25;;;10.50;56.70;;;;;;5044346;28;20067;-45
2022/03/22 00:16:20;;;;;;;16.35;12.30;;;10.50;56.70;;;;;;5036924;28;20100;-46
2022/03/22 00:19:07;;;;;;;18.35;11.80;;;10.50;56.80;;;;;;5025422;28;20419;-47
2022/03/22 00:21:35;;;;;;;15.88;12.15;;;10.50;56.80;;;;;;5029300;28;20053;-45
2022/03/22 00:24:03;;;;;;;18.27;13.50;;;10.50;56.80;;;;;;5050017;28;20663;-45
2022/03/22 00:26:30;;;;;;;17.58;12.82;;;10.50;57.60;;;;;;5049326;28;20052;-46
2022/03/22 00:28:58;;;;;;;18.02;13.10;;;10.50;57.00;;;;;;5034796;28;20056;-48
2022/03/22 00:31:31;;;;;;;14.38;11.10;;;10.50;57.10;;;;;;5048029;28;20647;-45
2022/03/22 00:33:59;;;;;;;16.60;11.73;;;10.40;56.90;;;;;;5010404;28;20069;-46
2022/03/22 00:36:31;;;;;;;19.17;13.18;;;10.40;56.90;;;;;;5006452;28;20045;-46
2022/03/22 00:38:57;;;;;;;16.58;12.70;;;10.40;57.00;;;;;;5022029;28;20087;-47
2022/03/22 00:41:24;;;;;;;17.25;12.73;;;10.40;57.00;;;;;;5039617;28;20057;-45
2022/03/22 00:43:51;;;;;;;17.10;13.02;;;10.30;57.00;;;;;;5048707;28;20033;-47
2022/03/22 00:46:18;;;;;;;21.63;13.38;;;10.30;57.10;;;;;;5040781;28;20452;-46
2022/03/22 00:48:47;;;;;;;17.73;12.70;;;10.30;57.20;;;;;;5033075;28;20033;-45
2022/03/22 00:51:16;;;;;;;16.83;13.02;;;10.30;57.30;;;;;;5047398;28;20565;-46
2022/03/22 00:53:45;;;;;;;17.88;12.40;;;10.30;57.60;;;;;;5048264;28;20170;-46
2022/03/22 00:56:17;;;;;;;19.73;12.57;;;10.30;57.40;;;;;;5036170;28;20087;-45
2022/03/22 01:00:01;;;;;;;20.08;13.60;;;10.30;57.40;;;;;;5025556;28;20500;-46
2022/03/22 01:01:36;;;;;;;15.93;12.00;;;10.30;57.40;;;;;;5036657;28;20076;-48
2022/03/22 01:04:06;;;;;;;17.35;12.25;;;10.30;57.30;;;;;;5047984;28;20044;-48
2022/03/22 01:06:33;;;;;;;17.67;13.05;;;10.20;57.40;;;;;;5036676;28;20508;-45
2022/03/22 01:09:00;;;;;;;16.65;11.82;;;10.20;57.40;;;;;;5047432;28;20072;-47
2022/03/22 01:11:29;;;;;;;16.73;12.88;;;10.20;57.40;;;;;;5044476;28;20029;-46
2022/03/22 01:13:56;;;;;;;19.00;13.35;;;10.20;57.50;;;;;;5028202;28;20042;-44
2022/03/22 01:16:22;;;;;;;17.15;13.05;;;10.20;57.60;;;;;;5022094;28;20042;-45
2022/03/22 01:18:49;;;;;;;19.77;12.30;;;10.10;57.50;;;;;;5045583;28;20044;-45
2022/03/22 01:21:16;;;;;;;17.63;13.60;;;10.10;57.60;;;;;;5052852;28;20496;-46
2022/03/22 01:23:43;;;;;;;18.35;13.77;;;10.10;57.60;;;;;;5053366;28;20494;-49
2022/03/22 01:26:13;;;;;;;18.52;13.23;;;10.10;57.70;;;;;;5033961;28;20041;-46
2022/03/22 01:28:43;;;;;;;20.13;13.07;;;10.10;57.70;;;;;;5048013;28;20037;-48
2022/03/22 01:31:12;;;;;;;20.70;13.02;;;10.00;57.60;;;;;;5052879;28;20061;-48
2022/03/22 01:33:40;;;;;;;17.92;12.30;;;10.00;57.60;;;;;;5035777;28;20034;-47
2022/03/22 01:36:06;;;;;;;19.55;12.90;;;10.00;58.40;;;;;;5034930;28;20404;-46
2022/03/22 01:38:36;;;;;;;21.00;13.38;;;10.00;57.70;;;;;;5050084;28;20055;-47
2022/03/22 01:41:04;;;;;;;17.02;12.10;;;10.00;57.80;;;;;;5051568;28;21003;-45
2022/03/22 01:43:33;;;;;;;17.10;12.52;;;10.00;57.70;;;;;;5048693;28;20043;-46
2022/03/22 01:46:02;;;;;;;16.63;12.77;;;9.90;57.70;;;;;;5039829;28;20044;-44
2022/03/22 01:48:29;;;;;;;15.82;11.40;;;9.90;57.80;;;;;;5052836;28;20481;-47
2022/03/22 01:50:58;;;;;;;19.23;14.18;;;9.90;57.70;;;;;;5051656;28;20128;-45
2022/03/22 01:53:26;;;;;;;17.25;12.93;;;9.90;57.80;;;;;;5043202;28;20092;-48
2022/03/22 01:55:53;;;;;;;17.67;13.40;;;9.80;57.80;;;;;;5039787;28;20091;-46
2022/03/22 01:58:19;;;;;;;18.60;13.18;;;9.80;57.80;;;;;;5052393;28;20501;-45
2022/03/22 02:00:46;;;;;;;19.88;11.90;;;9.80;57.90;;;;;;5052135;28;20094;-46
2022/03/22 02:06:02;;;;;;;18.90;11.82;;;9.80;58.00;;;;;;5029425;28;20123;-46
2022/03/22 02:08:33;;;;;;;16.83;12.35;;;9.70;57.90;;;;;;5039209;28;20504;-45
2022/03/22 02:11:00;;;;;;;20.30;13.02;;;9.70;58.00;;;;;;5029058;28;20049;-45
2022/03/22 02:13:31;;;;;;;20.40;12.90;;;9.70;58.10;;;;;;5025404;28;20037;-47
2022/03/22 02:16:00;;;;;;;23.00;12.23;;;9.70;58.10;;;;;;5038186;28;20037;-47
2022/03/22 02:18:27;;;;;;;19.45;12.57;;;9.60;58.10;;;;;;5050699;28;20041;-46
2022/03/22 02:20:55;;;;;;;21.45;13.45;;;9.60;58.10;;;;;;5036101;28;20041;-44
2022/03/22 02:23:56;;;;;;;15.95;11.77;;;9.60;58.20;;;;;;5041067;28;20044;-46
2022/03/22 02:26:27;;;;;;;17.55;12.07;;;9.60;58.80;;;;;;5042187;28;20543;-49
2022/03/22 02:28:54;;;;;;;17.55;11.52;;;9.60;57.90;;;;;;5048198;28;20553;-45
2022/03/22 02:31:25;;;;;;;17.83;12.98;;;9.50;57.90;;;;;;5025472;28;20129;-44
2022/03/22 02:33:52;;;;;;;17.67;12.75;;;9.50;57.90;;;;;;5048091;28;20064;-45
2022/03/22 02:36:25;;;;;;;19.00;12.90;;;9.50;57.90;;;;;;5051468;28;20069;-46
2022/03/22 02:38:52;;;;;;;22.92;13.73;;;9.50;58.10;;;;;;5052428;28;20493;-46
2022/03/22 02:41:24;;;;;;;19.33;12.93;;;9.40;57.90;;;;;;5033604;28;20386;-47
2022/03/22 02:43:55;;;;;;;17.88;11.95;;;9.40;58.00;;;;;;5048876;28;20049;-46
2022/03/22 02:46:23;;;;;;;17.63;11.77;;;9.40;58.00;;;;;;5051329;28;20037;-45
2022/03/22 02:48:51;;;;;;;16.05;12.50;;;9.40;57.90;;;;;;5033276;28;20046;-45
2022/03/22 02:51:18;;;;;;;16.48;12.30;;;9.30;58.00;;;;;;5030873;28;20048;-45
2022/03/22 02:53:52;;;;;;;20.35;12.57;;;9.30;58.00;;;;;;5047417;28;20079;-46
2022/03/22 02:56:19;;;;;;;18.70;13.48;;;9.30;58.20;;;;;;5047921;28;20045;-45
2022/03/22 02:58:47;;;;;;;22.30;12.32;;;9.20;58.00;;;;;;5045383;28;20111;-46
2022/03/22 03:01:16;;;;;;;18.48;12.40;;;9.20;58.10;;;;;;5025784;28;20045;-45
2022/03/22 03:03:43;;;;;;;20.95;14.23;;;9.20;58.20;;;;;;5046530;28;20041;-47
2022/03/22 03:06:12;;;;;;;21.63;13.55;;;9.20;58.20;;;;;;5035027;28;20041;-45
2022/03/22 03:08:38;;;;;;;18.20;13.10;;;9.20;58.30;;;;;;5024342;28;20053;-45
2022/03/22 03:11:05;;;;;;;17.30;12.70;;;9.10;58.30;;;;;;5038455;28;20088;-44
2022/03/22 03:16:30;;;;;;;17.95;13.13;;;9.10;58.30;;;;;;5018953;28;20122;-46
2022/03/22 03:18:58;;;;;;;18.15;12.85;;;9.10;58.20;;;;;;5024308;28;20125;-46
2022/03/22 03:21:26;;;;;;;18.98;12.90;;;9.10;58.30;;;;;;5047400;28;20531;-44
2022/03/22 03:23:53;;;;;;;19.05;13.50;;;9.00;58.30;;;;;;5049408;28;20041;-45
2022/03/22 03:26:22;;;;;;;18.27;12.15;;;9.00;58.40;;;;;;5031332;28;20455;-46
2022/03/22 03:28:52;;;;;;;15.30;11.73;;;9.00;58.60;;;;;;5026023;28;20045;-48
2022/03/22 03:31:19;;;;;;;19.73;12.57;;;8.90;58.50;;;;;;5043209;28;20060;-47
2022/03/22 03:33:51;;;;;;;21.05;12.63;;;8.90;58.50;;;;;;5048283;28;20033;-47
2022/03/22 03:36:18;;;;;;;18.65;13.13;;;8.90;58.50;;;;;;5044344;28;20468;-46
2022/03/22 03:38:45;;;;;;;17.35;13.18;;;8.90;58.50;;;;;;5034137;28;20045;-44
2022/03/22 03:47:03;;;;;;;16.42;11.90;;;8.90;58.50;;;;;;5044508;28;20053;-45
2022/03/22 03:47:05;;;;;;;16.92;11.43;;;8.80;58.40;;;;;;5025670;28;20049;-45
2022/03/22 03:49:37;;;;;;;19.40;12.88;;;8.80;58.30;;;;;;5049764;28;20045;-46
2022/03/22 03:52:07;;;;;;;16.33;11.95;;;8.80;58.50;;;;;;5009817;28;20132;-45
2022/03/22 03:54:37;;;;;;;20.83;12.82;;;8.80;58.40;;;;;;5013810;28;20041;-46
2022/03/22 03:57:10;;;;;;;17.80;12.13;;;8.70;58.30;;;;;;5041008;28;20110;-46
2022/03/22 03:59:46;;;;;;;16.17;12.20;;;8.70;58.30;;;;;;5049178;28;20037;-46
2022/03/22 04:02:13;;;;;;;18.33;11.68;;;8.70;58.30;;;;;;5048500;28;20087;-45
2022/03/22 04:04:51;;;;;;;18.92;12.77;;;8.70;58.30;;;;;;5034465;28;20041;-46
2022/03/22 04:07:20;;;;;;;17.70;11.98;;;8.60;58.30;;;;;;5034633;28;20519;-45
2022/03/22 04:09:46;;;;;;;18.58;12.25;;;8.60;58.40;;;;;;5039797;28;20044;-45
2022/03/22 04:12:13;;;;;;;20.05;13.55;;;8.60;58.40;;;;;;5028875;28;20405;-45
2022/03/22 04:14:42;;;;;;;17.35;12.70;;;8.60;58.50;;;;;;5024469;28;20033;-46
2022/03/22 04:17:09;;;;;;;17.92;12.77;;;8.50;58.50;;;;;;5033564;28;20029;-45
2022/03/22 04:19:40;;;;;;;17.15;12.57;;;8.50;58.60;;;;;;5050160;28;20033;-46
2022/03/22 04:22:13;;;;;;;18.25;12.85;;;8.50;58.60;;;;;;5049148;28;20135;-47
2022/03/22 04:24:41;;;;;;;16.07;11.60;;;8.40;58.70;;;;;;5033917;28;20045;-44
2022/03/22 04:32:44;;;;;;;18.83;12.95;;;8.40;58.50;;;;;;5044264;28;20090;-45
2022/03/22 04:35:20;;;;;;;17.38;12.05;;;8.30;58.50;;;;;;5038424;28;20102;-44
2022/03/22 04:37:50;;;;;;;21.55;12.80;;;8.30;58.60;;;;;;5049131;28;20071;-47
2022/03/22 04:40:25;;;;;;;15.63;11.30;;;8.30;58.60;;;;;;5048537;28;20117;-44
2022/03/22 04:42:53;;;;;;;15.60;10.90;;;8.30;58.60;;;;;;5020547;28;20415;-45
2022/03/22 04:45:22;;;;;;;19.08;11.38;;;8.20;58.50;;;;;;5037474;28;20119;-46
2022/03/22 04:47:50;;;;;;;17.92;12.02;;;8.20;58.60;;;;;;5048791;28;20040;-47
2022/03/22 04:50:20;;;;;;;18.60;11.50;;;8.20;58.50;;;;;;5048689;28;20127;-45
2022/03/22 04:58:23;;;;;;;16.05;11.82;;;8.10;58.60;;;;;;5049242;28;20551;-45
2022/03/22 05:00:54;;;;;;;17.67;12.02;;;8.00;58.50;;;;;;5035439;28;20469;-47
2022/03/22 05:03:24;;;;;;;18.27;11.63;;;8.00;58.70;;;;;;5036730;28;20057;-46
2022/03/22 05:08:39;;;;;;;14.98;9.98;;;8.00;58.70;;;;;;5037094;28;20119;-45
2022/03/22 05:11:07;;;;;;;17.60;11.77;;;8.00;58.70;;;;;;5029400;28;20129;-46
2022/03/22 05:13:34;;;;;;;18.73;11.25;;;7.90;58.70;;;;;;5033336;28;20041;-44
2022/03/22 05:16:06;;;;;;;17.13;11.60;;;7.90;58.80;;;;;;5025826;28;20035;-46
2022/03/22 05:18:36;;;;;;;14.93;10.80;;;7.90;59.00;;;;;;5049223;28;20045;-46
2022/03/22 05:21:07;;;;;;;18.05;12.75;;;7.90;58.80;;;;;;5032872;28;20057;-46
2022/03/22 05:23:34;;;;;;;16.80;11.02;;;7.80;58.90;;;;;;5046018;28;20045;-46
2022/03/22 05:26:03;;;;;;;17.95;11.73;;;7.80;58.90;;;;;;5026014;28;20115;-44
2022/03/22 05:28:31;;;;;;;19.45;11.55;;;7.80;59.00;;;;;;5014770;28;20046;-45
2022/03/22 05:31:00;;;;;;;18.45;10.98;;;7.80;59.10;;;;;;5048246;28;20639;-47
2022/03/22 05:33:27;;;;;;;24.33;12.40;;;7.80;59.30;;;;;;5044078;28;20091;-46
2022/03/22 05:35:54;;;;;;;17.55;11.02;;;7.80;59.70;;;;;;5042022;28;20041;-47
2022/03/22 05:38:25;;;;;;;13.98;10.68;;;7.70;59.10;;;;;;5033587;28;20594;-46
2022/03/22 05:40:53;;;;;;;18.20;11.95;;;7.70;59.20;;;;;;5035755;28;20099;-47
2022/03/22 05:43:20;;;;;;;21.63;12.45;;;7.70;59.20;;;;;;5047520;28;20420;-46
2022/03/22 05:45:51;;;;;;;16.20;11.02;;;7.70;59.20;;;;;;5028112;28;20049;-47
2022/03/22 05:48:19;;;;;;;18.30;10.90;;;7.70;59.30;;;;;;5028822;28;20501;-46
2022/03/22 05:50:47;;;;;;;20.13;11.32;;;7.70;59.30;;;;;;5043048;28;20048;-46
2022/03/22 05:53:14;;;;;;;18.35;11.48;;;7.70;59.40;;;;;;5046944;28;20037;-46
2022/03/22 05:55:43;;;;;;;16.73;11.80;;;7.70;59.60;;;;;;5048503;28;20098;-45
2022/03/22 05:58:10;;;;;;;18.75;11.68;;;7.70;59.60;;;;;;5016455;28;20088;-46
2022/03/22 06:00:37;;;;;;;19.95;13.02;;;7.70;59.70;;;;;;5039173;28;20080;-48
2022/03/22 06:03:04;;;;;;;20.48;13.55;;;7.70;59.80;;;;;;5046124;28;20524;-45
2022/03/22 06:05:31;;;;;;;20.17;12.70;;;7.70;59.90;;;;;;5037955;28;20934;-45
2022/03/22 06:07:59;;;;;;;20.27;12.93;;;7.70;60.00;;;;;;5036076;28;20087;-45
2022/03/22 06:10:27;;;;;;;20.40;12.77;;;7.70;60.10;;;;;;5047974;28;20606;-45
2022/03/22 06:12:55;;;;;;;21.80;12.43;;;7.70;60.10;;;;;;5037213;28;20160;-49
2022/03/22 06:15:25;;;;;;;17.35;12.10;;;7.70;60.30;;;;;;5030237;28;20057;-46
2022/03/22 06:17:57;;;;;;;17.60;12.68;;;7.80;60.50;;;;;;5037011;28;20095;-46
2022/03/22 06:20:31;;;;;;;20.25;13.25;;;7.80;60.80;;;;;;5047703;28;20064;-45
2022/03/22 06:22:59;;;;;;;20.30;13.20;;;7.80;60.60;;;;;;5030824;28;20463;-47
2022/03/22 06:25:26;;;;;;;19.17;13.02;;;7.90;60.70;;;;;;5029202;28;20176;-46
2022/03/22 06:27:54;;;;;;;18.27;12.68;;;7.90;61.00;;;;;;5042497;28;20076;-46
2022/03/22 06:30:21;;;;;;;20.42;13.48;;;7.90;61.10;;;;;;5052244;28;20098;-46
2022/03/22 06:32:53;;;;;;;21.42;12.82;;;8.00;61.30;;;;;;5050741;28;20115;-46
2022/03/22 06:35:22;;;;;;;22.67;13.70;;;8.00;62.30;;;;;;5028921;28;20046;-46
2022/03/22 06:37:50;;;;;;;21.70;13.95;;;8.10;61.60;;;;;;5044642;28;20187;-46
2022/03/22 06:40:19;;;;;;;21.38;14.18;;;8.10;62.30;;;;;;5052240;28;20049;-45
2022/03/22 06:42:48;;;;;;;21.98;14.77;;;8.20;61.90;;;;;;5047800;28;20048;-48
2022/03/22 06:45:15;;;;;;;22.38;15.57;;;8.20;61.90;;;;;;5026566;28;20076;-46
2022/03/22 06:47:46;;;;;;;23.73;14.93;;;8.30;62.10;;;;;;5047179;28;20052;-46
2022/03/22 06:50:15;;;;;;;22.88;15.35;;;8.40;62.20;;;;;;5052502;28;20114;-48
2022/03/22 06:52:42;;;;;;;26.45;15.27;;;8.40;62.40;;;;;;5045852;28;20095;-44
2022/03/22 06:55:11;;;;;;;24.45;17.13;;;8.50;62.30;;;;;;5033607;28;20389;-46
2022/03/22 06:57:39;;;;;;;25.85;16.20;;;8.50;62.40;;;;;;5047447;28;20053;-46
2022/03/22 07:00:09;;;;;;;26.33;16.65;;;8.60;62.50;;;;;;5050395;28;20099;-45
2022/03/22 07:02:39;;;;;;;26.65;16.67;;;8.70;62.70;;;;;;5050111;28;20102;-46
2022/03/22 07:05:11;;;;;;;25.98;16.40;;;8.70;62.50;;;;;;5031669;28;20083;-46
2022/03/22 07:07:39;;;;;;;22.95;15.45;;;8.80;62.80;;;;;;5040900;28;20534;-46
2022/03/22 07:10:14;;;;;;;26.08;16.80;;;8.90;62.50;;;;;;5032290;28;20483;-47
2022/03/22 07:12:51;;;;;;;;;;;8.90;62.60;;;;;;5025487;28;20046;-46
2022/03/22 07:15:23;;;;;;;21.45;15.48;;;9.10;63.20;;;;;;5033772;28;19925;-45
2022/03/22 07:17:52;;;;;;;;;;;9.10;61.90;;;;;;5048581;28;20119;-46
2022/03/22 07:20:20;;;;;;;26.63;16.48;;;9.20;62.80;;;;;;5051006;28;20612;-48
2022/03/22 07:22:48;;;;;;;26.38;17.15;;;9.20;61.60;;;;;;5033286;28;20417;-48
2022/03/22 07:25:15;;;;;;;25.08;19.08;;;9.30;62.00;;;;;;5047817;28;20045;-49
2022/03/22 07:27:41;;;;;;;29.55;19.13;;;9.30;62.00;;;;;;5050539;28;20045;-47
2022/03/22 07:30:12;;;;;;;28.00;20.42;;;9.40;62.00;;;;;;5049104;28;20054;-44
2022/03/22 07:32:43;;;;;;;30.20;19.15;;;9.50;62.00;;;;;;5036088;28;20056;-47
2022/03/22 07:35:13;;;;;;;30.17;18.00;;;9.60;61.90;;;;;;5050728;28;20041;-50
2022/03/22 07:37:42;;;;;;;24.58;17.35;;;9.70;61.70;;;;;;5050997;28;20799;-45
2022/03/22 07:40:10;;;;;;;28.88;18.80;;;9.80;61.10;;;;;;5036008;28;20087;-46
2022/03/22 07:42:38;;;;;;;27.38;19.08;;;9.90;61.00;;;;;;5050440;28;20275;-45
2022/03/22 07:45:09;;;;;;;28.40;17.88;;;10.00;60.70;;;;;;5050731;28;20642;-47
2022/03/22 07:47:37;;;;;;;26.27;18.42;;;10.10;60.30;;;;;;5050597;28;20041;-46
2022/03/22 07:53:05;;;;;;;24.02;17.70;;;10.40;59.90;;;;;;5044126;28;20048;-46
2022/03/22 07:55:36;;;;;;;26.58;17.27;;;10.50;59.60;;;;;;5049085;28;20048;-45
2022/03/22 07:58:05;;;;;;;26.33;17.90;;;10.70;59.30;;;;;;5036717;28;20103;-48
2022/03/22 08:00:38;;;;;;;22.98;18.30;;;10.80;58.90;;;;;;5041030;28;20390;-47
2022/03/22 08:03:10;;;;;;;28.58;18.70;;;10.90;58.70;;;;;;5035123;28;20139;-49
2022/03/22 08:05:41;;;;;;;27.20;18.67;;;11.00;58.60;;;;;;5037247;28;20034;-49
2022/03/22 08:08:08;;;;;;;24.48;16.65;;;11.10;58.40;;;;;;5029644;28;20045;-47
2022/03/22 08:10:55;;;;;;;25.58;18.77;;;11.10;58.10;;;;;;5038490;28;20140;-51
2022/03/22 08:13:22;;;;;;;25.50;17.17;;;11.30;57.70;;;;;;5046545;28;20052;-46
2022/03/22 08:15:48;;;;;;;26.10;19.08;;;11.40;57.60;;;;;;5031612;28;20034;-45
2022/03/22 08:18:18;;;;;;;31.40;17.95;;;11.50;57.40;;;;;;5027151;28;20045;-49
2022/03/22 08:20:45;;;;;;;30.48;19.42;;;11.60;57.40;;;;;;5032587;28;20069;-46
2022/03/22 08:23:13;;;;;;;25.00;17.27;;;11.70;57.20;;;;;;5049230;28;20037;-51
2022/03/22 08:25:43;;;;;;;27.63;17.83;;;11.80;57.00;;;;;;5047186;28;20067;-49
2022/03/22 08:28:12;;;;;;;28.25;18.42;;;11.80;56.70;;;;;;5018107;28;20060;-47
2022/03/22 08:30:39;;;;;;;29.48;17.75;;;11.90;56.40;;;;;;5039735;28;20049;-47
2022/03/22 08:33:09;;;;;;;26.38;18.58;;;12.00;56.20;;;;;;5049470;28;20040;-49
2022/03/22 08:35:47;;;;;;;26.60;18.13;;;12.10;55.90;;;;;;5049543;28;20045;-49
2022/03/22 08:38:15;;;;;;;27.23;17.75;;;12.20;55.60;;;;;;5034642;28;20041;-52
2022/03/22 08:40:42;;;;;;;30.58;18.88;;;12.30;55.20;;;;;;5049700;28;20500;-49
2022/03/22 08:43:09;;;;;;;23.65;17.00;;;12.30;54.80;;;;;;5049490;28;20103;-52
2022/03/22 08:45:36;;;;;;;29.48;19.20;;;12.40;54.50;;;;;;5035690;28;20083;-49
2022/03/22 08:48:10;;;;;;;29.25;19.25;;;12.40;54.30;;;;;;5037800;28;20558;-51
2022/03/22 08:50:43;;;;;;;33.17;18.38;;;12.50;54.00;;;;;;5049214;28;20041;-51
2022/03/22 08:53:11;;;;;;;23.83;17.50;;;12.60;53.70;;;;;;5049272;28;20056;-50
2022/03/22 08:55:47;;;;;;;26.67;18.05;;;12.70;53.60;;;;;;5034321;28;20042;-51
2022/03/22 08:58:16;;;;;;;25.48;17.15;;;12.80;53.20;;;;;;5049263;28;20501;-52
2022/03/22 09:00:45;;;;;;;25.20;17.50;;;12.90;53.50;;;;;;5049401;28;20065;-49
2022/03/22 09:03:12;;;;;;;24.15;16.08;;;12.90;53.30;;;;;;5039869;28;20069;-51
2022/03/22 09:08:24;;;;;;;23.85;16.52;;;13.10;52.90;;;;;;5035684;28;20112;-45
2022/03/22 09:10:52;;;;;;;29.23;16.95;;;13.20;52.60;;;;;;5038092;28;20033;-50
2022/03/22 09:13:19;;;;;;;25.05;16.60;;;13.30;52.70;;;;;;5025507;28;20129;-50
2022/03/22 09:15:51;;;;;;;23.90;16.55;;;13.40;52.10;;;;;;5031169;28;20087;-48
2022/03/22 09:18:21;;;;;;;24.40;17.00;;;13.50;51.90;;;;;;5049177;28;20731;-47
2022/03/22 09:20:48;;;;;;;24.13;17.63;;;13.60;51.80;;;;;;5049516;28;20041;-50
2022/03/22 09:23:15;;;;;;;24.50;16.60;;;13.60;51.70;;;;;;5034224;28;20087;-47
2022/03/22 09:25:43;;;;;;;26.10;16.92;;;13.70;51.40;;;;;;5033130;28;20099;-51
2022/03/22 09:28:11;;;;;;;24.15;16.70;;;13.80;51.20;;;;;;5048625;28;20037;-49
2022/03/22 09:30:39;;;;;;;22.70;16.35;;;13.90;51.10;;;;;;5049724;28;20048;-49
2022/03/22 09:33:07;;;;;;;23.20;15.35;;;14.00;51.60;;;;;;5032775;28;20041;-49
2022/03/22 09:35:35;;;;;;;21.65;15.32;;;14.10;50.70;;;;;;5047336;28;20041;-45
2022/03/22 09:38:03;;;;;;;24.38;16.13;;;14.10;50.70;;;;;;5009300;28;20066;-49
2022/03/22 09:40:30;;;;;;;22.13;15.50;;;14.30;50.50;;;;;;5010224;28;20042;-45
2022/03/22 09:42:57;;;;;;;23.75;15.57;;;14.30;50.30;;;;;;5021460;28;20456;-50
2022/03/22 09:45:29;;;;;;;22.10;15.00;;;14.30;50.00;;;;;;5040443;28;20045;-51
2022/03/22 09:47:57;;;;;;;21.30;14.75;;;14.40;49.60;;;;;;5053211;28;20049;-50
2022/03/22 09:51:44;;;;;;;22.25;15.52;;;14.50;49.70;;;;;;5040082;28;20049;-47
2022/03/22 09:53:13;;;;;;;21.30;14.30;;;14.60;49.30;;;;;;5041348;28;20037;-48
2022/03/22 09:55:40;;;;;;;20.52;13.55;;;14.70;49.70;;;;;;5051881;28;20072;-51
2022/03/22 09:58:08;;;;;;;21.42;13.82;;;14.80;49.40;;;;;;5052299;28;20048;-50
2022/03/22 10:00:36;;;;;;;19.17;14.80;;;14.80;49.10;;;;;;5037912;28;20065;-51
2022/03/22 10:03:03;;;;;;;21.75;13.93;;;14.90;49.10;;;;;;5036823;28;20413;-47
2022/03/22 10:05:30;;;;;;;22.23;14.48;;;15.00;49.10;;;;;;5050966;28;20056;-46
2022/03/22 10:08:05;;;;;;;20.35;13.50;;;15.10;48.70;;;;;;5033406;28;20521;-52
2022/03/22 10:10:35;;;;;;;19.08;13.48;;;15.20;48.30;;;;;;5033169;28;20045;-50
2022/03/22 10:13:04;;;;;;;23.10;14.98;;;15.20;48.20;;;;;;5039788;28;20041;-48
2022/03/22 10:15:35;;;;;;;21.48;13.60;;;15.30;48.00;;;;;;5046116;28;20370;-47
2022/03/22 10:18:07;;;;;;;19.90;13.43;;;15.40;47.70;;;;;;5031219;28;20038;-49
2022/03/22 10:20:39;;;;;;;21.83;14.00;;;15.40;48.10;;;;;;5028079;28;20288;-49
2022/03/22 10:23:10;;;;;;;18.00;12.88;;;15.50;47.70;;;;;;5039583;28;20048;-50
2022/03/22 10:25:41;;;;;;;22.05;13.75;;;15.60;47.80;;;;;;5051479;28;20049;-48
2022/03/22 10:28:09;;;;;;;19.35;13.50;;;15.70;47.90;;;;;;5042546;28;20060;-50
2022/03/22 10:30:36;;;;;;;18.83;14.90;;;15.70;48.00;;;;;;5046532;28;20170;-47
2022/03/22 10:33:05;;;;;;;18.05;12.88;;;15.80;48.00;;;;;;5051079;28;20057;-50
2022/03/22 10:35:34;;;;;;;22.83;13.43;;;15.90;47.60;;;;;;5051268;28;20049;-46
2022/03/22 10:38:06;;;;;;;18.53;12.47;;;16.00;47.50;;;;;;5034306;28;20045;-50
2022/03/22 10:40:40;;;;;;;18.98;12.57;;;16.10;47.20;;;;;;5036734;28;20583;-46
2022/03/22 10:43:22;;;;;;;17.50;11.73;;;16.10;46.90;;;;;;5036944;28;20052;-51
2022/03/22 10:46:00;;;;;;;17.23;10.80;;;16.30;46.50;;;;;;5051407;28;20060;-47
2022/03/22 10:48:32;;;;;;;13.77;9.35;;;16.30;44.50;;;;;;5039274;28;20063;-46
2022/03/22 10:50:59;;;;;;;13.77;8.68;;;16.40;44.70;;;;;;5049764;28;20047;-50
2022/03/22 10:53:28;;;;;;;12.77;8.77;;;16.50;44.50;;;;;;5038285;28;20042;-51
2022/03/22 10:56:00;;;;;;;13.95;9.35;;;16.60;44.00;;;;;;5041625;28;20087;-51
2022/03/22 10:58:28;;;;;;;17.35;9.95;;;16.70;43.70;;;;;;5030713;28;20113;-52
2022/03/22 11:00:57;;;;;;;17.05;9.90;;;16.70;44.10;;;;;;5043936;28;20052;-52
2022/03/22 11:03:29;;;;;;;14.48;10.05;;;16.90;43.50;;;;;;5051543;28;20067;-50
2022/03/22 11:06:02;;;;;;;14.57;9.68;;;16.90;43.10;;;;;;5035505;28;20052;-50
2022/03/22 11:08:29;;;;;;;14.85;9.05;;;17.10;42.90;;;;;;5040090;28;20057;-46
2022/03/22 11:10:58;;;;;;;12.13;9.55;;;17.10;42.70;;;;;;5039892;28;20046;-51
2022/03/22 11:13:25;;;;;;;15.75;10.27;;;17.20;42.80;;;;;;5030987;28;20045;-52
2022/03/22 11:15:55;;;;;;;14.82;10.23;;;17.40;42.40;;;;;;5026266;28;20125;-51
2022/03/22 11:18:25;;;;;;;15.23;9.07;;;17.50;41.60;;;;;;5041774;28;20041;-50
2022/03/22 11:20:57;;;;;;;12.07;9.35;;;17.50;41.30;;;;;;5051299;28;20064;-52
2022/03/22 11:23:29;;;;;;;15.07;9.73;;;17.60;40.50;;;;;;5050441;28;20128;-49
2022/03/22 11:26:13;;;;;;;12.50;9.32;;;17.70;40.70;;;;;;5041912;28;20037;-53
2022/03/22 11:28:41;;;;;;;12.55;9.27;;;17.80;40.30;;;;;;5041691;28;20128;-47
2022/03/22 11:31:09;;;;;;;15.95;10.52;;;17.80;41.00;;;;;;5051209;28;20045;-49
2022/03/22 11:42:15;;;;;;;16.17;9.63;;;17.90;40.80;;;;;;5049880;28;20056;-47
2022/03/22 11:42:21;;;;;;;15.15;10.02;;;18.00;40.20;;;;;;5050298;28;20095;-48
2022/03/22 11:45:15;;;;;;;14.93;11.10;;;18.10;40.80;;;;;;5050392;28;20056;-46
2022/03/22 11:47:43;;;;;;;16.85;12.70;;;18.10;40.20;;;;;;5024232;28;20057;-46
2022/03/22 11:50:17;;;;;;;16.65;11.27;;;18.20;40.80;;;;;;5043094;28;20048;-47
2022/03/22 11:52:47;;;;;;;22.98;13.05;;;18.30;41.50;;;;;;5042636;28;20517;-49
2022/03/22 11:55:25;;;;;;;18.30;12.85;;;18.30;40.80;;;;;;5039355;28;20455;-49
2022/03/22 11:57:53;;;;;;;16.67;10.48;;;18.40;40.40;;;;;;5042117;28;20045;-46
2022/03/22 12:00:42;;;;;;;16.52;11.52;;;18.40;40.90;;;;;;5026651;28;20077;-47
2022/03/22 12:03:11;;;;;;;14.18;10.80;;;18.50;40.90;;;;;;5037967;28;20566;-47
2022/03/22 12:05:38;;;;;;;12.10;9.18;;;18.60;40.00;;;;;;5047953;28;20045;-47
2022/03/22 12:08:13;;;;;;;13.95;9.85;;;18.70;39.80;;;;;;5030649;28;20567;-47
2022/03/22 12:10:48;;;;;;;14.23;10.43;;;18.70;40.10;;;;;;5029488;28;20091;-48
2022/03/22 12:13:15;;;;;;;17.65;12.70;;;18.80;40.00;;;;;;5028935;28;20053;-47
2022/03/22 12:15:54;;;;;;;;;;;18.80;40.30;;;;;;5041557;28;20092;-47
2022/03/22 12:18:30;;;;;;;18.73;11.85;;;18.90;40.90;;;;;;5024207;28;20307;-46
2022/03/22 12:20:58;;;;;;;19.42;10.57;;;19.00;40.10;;;;;;5029386;28;20037;-47
2022/03/22 12:23:26;;;;;;;17.70;12.07;;;19.00;40.50;;;;;;5037681;28;20041;-47
2022/03/22 12:25:53;;;;;;;17.10;11.98;;;19.10;40.10;;;;;;5040655;28;20515;-49
2022/03/22 12:28:20;;;;;;;19.13;12.05;;;19.20;39.60;;;;;;5049695;28;20122;-48
2022/03/22 12:30:48;;;;;;;13.70;11.05;;;19.30;39.90;;;;;;5034270;28;20095;-47
2022/03/22 12:33:21;;;;;;;14.00;10.05;;;19.30;39.00;;;;;;5040267;28;20048;-48
2022/03/22 12:35:49;;;;;;;17.00;11.38;;;19.30;38.70;;;;;;5030628;28;20049;-49
2022/03/22 12:38:16;;;;;;;14.02;9.82;;;19.40;38.30;;;;;;5028348;28;20049;-48
2022/03/22 12:40:44;;;;;;;12.27;9.43;;;19.50;39.10;;;;;;5046018;28;20048;-48
2022/03/22 12:43:13;;;;;;;15.93;10.77;;;19.50;38.60;;;;;;5040753;28;20103;-47
2022/03/22 12:45:46;;;;;;;15.73;10.68;;;19.60;38.80;;;;;;5049000;28;20709;-47
2022/03/22 12:48:19;;;;;;;13.57;10.00;;;19.60;38.00;;;;;;5035721;28;20033;-47
2022/03/22 12:50:47;;;;;;;13.95;9.63;;;19.60;37.80;;;;;;5032992;28;20064;-47
2022/03/22 12:53:14;;;;;;;13.50;10.15;;;19.70;37.40;;;;;;5038767;28;20042;-48
2022/03/22 12:55:42;;;;;;;14.02;10.07;;;19.70;37.30;;;;;;5046244;28;20048;-47
2022/03/22 12:58:11;;;;;;;12.35;9.63;;;19.80;37.30;;;;;;5041239;28;20475;-48
2022/03/22 13:00:39;;;;;;;10.95;8.57;;;19.90;37.00;;;;;;5050100;28;20606;-47
2022/03/22 13:03:14;;;;;;;13.57;8.90;;;19.90;36.70;;;;;;5038119;28;20041;-46
2022/03/22 13:05:47;;;;;;;11.15;7.32;;;20.00;36.40;;;;;;5034937;28;20496;-47
2022/03/22 13:08:21;;;;;;;10.40;7.00;;;20.10;36.20;;;;;;5010498;28;20060;-48
2022/03/22 13:16:26;;;;;;;8.82;6.88;;;20.40;35.60;;;;;;5030371;28;20434;-48
2022/03/22 13:18:57;;;;;;;11.45;7.63;;;20.40;35.20;;;;;;5041091;28;20064;-47
2022/03/22 13:21:30;;;;;;;11.80;7.70;;;20.50;35.30;;;;;;5045378;28;20033;-47
2022/03/22 13:24:08;;;;;;;10.10;6.95;;;20.60;34.60;;;;;;5051538;28;20083;-47
2022/03/22 13:26:36;;;;;;;8.95;7.50;;;20.70;34.60;;;;;;5039776;28;20049;-48